sensor_id;sensor_type;location;lat;lon;timestamp;temperature;humidity
5392;DHT22;2719;53.624;9.786;2024-03-23T00:54:39;8.20;99.90
5392;DHT22;2719;53.624;9.786;2024-03-23T00:57:04;8.20;99.90
5392;DHT22;2719;53.624;9.786;2024-03-23T00:59:30;8.10;99.90
5392;DHT22;2719;53.624;9.786;2024-03-23T01:01:56;8.10;99.90
5392;DHT22;2719;53.624;9.786;2024-03-23T01:04:22;8.20;99.90
5392;DHT22;2719;53.624;9.786;2024-03-23T01:06:47;8.10;99.90
5392;DHT22;2719;53.624;9.786;2024-03-23T01:09:13;8.10;99.90
5392;DHT22;2719;53.624;9.786;2024-03-23T01:11:39;8.10;99.90
5392;DHT22;2719;53.624;9.786;2024-03-23T01:14:05;8.10;99.90
5392;DHT22;2719;53.624;9.786;2024-03-23T01:16:31;8.00;99.90
5392;DHT22;2719;53.624;9.786;2024-03-23T01:18:57;8.10;99.90
5392;DHT22;2719;53.624;9.786;2024-03-23T01:21:22;8.10;99.90
5392;DHT22;2719;53.624;9.786;2024-03-23T01:23:48;8.10;99.90
5392;DHT22;2719;53.624;9.786;2024-03-23T01:26:13;8.10;99.90
5392;DHT22;2719;53.624;9.786;2024-03-23T01:28:40;8.10;99.90
5392;DHT22;2719;53.624;9.786;2024-03-23T01:31:05;8.10;99.90
5392;DHT22;2719;53.624;9.786;2024-03-23T01:33:31;8.00;99.90
5392;DHT22;2719;53.624;9.786;2024-03-23T01:35:56;7.90;99.90
5392;DHT22;2719;53.624;9.786;2024-03-23T01:38:22;8.00;99.90
5392;DHT22;2719;53.624;9.786;2024-03-23T01:40:47;8.00;99.90
5392;DHT22;2719;53.624;9.786;2024-03-23T01:43:13;7.90;99.90
5392;DHT22;2719;53.624;9.786;2024-03-23T01:45:39;7.90;99.90
5392;DHT22;2719;53.624;9.786;2024-03-23T01:48:05;7.80;99.90
5392;DHT22;2719;53.624;9.786;2024-03-23T01:50:31;7.80;99.90
5392;DHT22;2719;53.624;9.786;2024-03-23T01:53:02;7.90;99.90
5392;DHT22;2719;53.624;9.786;2024-03-23T01:55:28;7.80;99.90
5392;DHT22;2719;53.624;9.786;2024-03-23T01:57:56;7.80;99.90
5392;DHT22;2719;53.624;9.786;2024-03-23T02:00:22;7.80;99.90
5392;DHT22;2719;53.624;9.786;2024-03-23T02:02:48;7.80;99.90
5392;DHT22;2719;53.624;9.786;2024-03-23T02:05:14;7.80;99.90
5392;DHT22;2719;53.624;9.786;2024-03-23T02:07:41;7.80;99.90
5392;DHT22;2719;53.624;9.786;2024-03-23T02:10:09;7.80;99.90
5392;DHT22;2719;53.624;9.786;2024-03-23T02:12:36;7.80;99.90
5392;DHT22;2719;53.624;9.786;2024-03-23T02:15:01;7.80;99.90
5392;DHT22;2719;53.624;9.786;2024-03-23T02:17:30;7.80;99.90
5392;DHT22;2719;53.624;9.786;2024-03-23T02:19:56;7.80;99.90
5392;DHT22;2719;53.624;9.786;2024-03-23T02:22:21;7.80;99.90
5392;DHT22;2719;53.624;9.786;2024-03-23T02:24:47;7.70;99.90
5392;DHT22;2719;53.624;9.786;2024-03-23T02:27:12;7.70;99.90
5392;DHT22;2719;53.624;9.786;2024-03-23T02:29:38;7.60;99.90
5392;DHT22;2719;53.624;9.786;2024-03-23T02:32:04;7.60;99.90
5392;DHT22;2719;53.624;9.786;2024-03-23T02:34:29;7.70;99.90
5392;DHT22;2719;53.624;9.786;2024-03-23T02:36:55;7.60;99.90
5392;DHT22;2719;53.624;9.786;2024-03-23T02:39:20;7.60;99.90
5392;DHT22;2719;53.624;9.786;2024-03-23T02:41:45;7.50;99.90
5392;DHT22;2719;53.624;9.786;2024-03-23T02:44:13;7.40;99.90
5392;DHT22;2719;53.624;9.786;2024-03-23T02:46:39;7.50;99.90
5392;DHT22;2719;53.624;9.786;2024-03-23T02:49:04;7.40;99.90
5392;DHT22;2719;53.624;9.786;2024-03-23T02:51:30;7.40;99.90
5392;DHT22;2719;53.624;9.786;2024-03-23T02:53:56;7.40;99.90
5392;DHT22;2719;53.624;9.786;2024-03-23T02:56:22;7.50;99.90
5392;DHT22;2719;53.624;9.786;2024-03-23T02:58:47;7.50;99.90
5392;DHT22;2719;53.624;9.786;2024-03-23T03:01:13;7.50;99.90
5392;DHT22;2719;53.624;9.786;2024-03-23T03:03:38;7.60;99.90
5392;DHT22;2719;53.624;9.786;2024-03-23T03:06:04;7.50;99.90
5392;DHT22;2719;53.624;9.786;2024-03-23T03:08:29;7.70;99.90
5392;DHT22;2719;53.624;9.786;2024-03-23T03:10:55;7.60;99.90
5392;DHT22;2719;53.624;9.786;2024-03-23T03:13:20;7.70;99.90
5392;DHT22;2719;53.624;9.786;2024-03-23T03:15:46;7.70;99.90
5392;DHT22;2719;53.624;9.786;2024-03-23T03:18:11;7.60;99.90
5392;DHT22;2719;53.624;9.786;2024-03-23T03:20:38;7.60;99.90
5392;DHT22;2719;53.624;9.786;2024-03-23T03:23:05;7.60;99.90
5392;DHT22;2719;53.624;9.786;2024-03-23T03:25:30;7.70;99.90
5392;DHT22;2719;53.624;9.786;2024-03-23T03:27:56;7.70;99.90
5392;DHT22;2719;53.624;9.786;2024-03-23T03:30:21;7.70;99.90
5392;DHT22;2719;53.624;9.786;2024-03-23T03:32:47;7.70;99.90
5392;DHT22;2719;53.624;9.786;2024-03-23T03:35:13;7.70;99.90
5392;DHT22;2719;53.624;9.786;2024-03-23T03:37:38;7.80;99.90
5392;DHT22;2719;53.624;9.786;2024-03-23T03:40:04;7.80;99.90
5392;DHT22;2719;53.624;9.786;2024-03-23T03:42:29;7.80;99.90
5392;DHT22;2719;53.624;9.786;2024-03-23T03:44:55;7.80;99.90
5392;DHT22;2719;53.624;9.786;2024-03-23T03:47:20;7.70;99.90
5392;DHT22;2719;53.624;9.786;2024-03-23T03:49:47;7.70;99.90
5392;DHT22;2719;53.624;9.786;2024-03-23T03:52:12;7.60;99.90
5392;DHT22;2719;53.624;9.786;2024-03-23T03:54:38;7.60;99.90
5392;DHT22;2719;53.624;9.786;2024-03-23T03:57:04;7.60;99.90
5392;DHT22;2719;53.624;9.786;2024-03-23T03:59:29;7.70;99.90
5392;DHT22;2719;53.624;9.786;2024-03-23T04:01:55;7.60;99.90
5392;DHT22;2719;53.624;9.786;2024-03-23T04:04:20;7.60;99.90
5392;DHT22;2719;53.624;9.786;2024-03-23T04:06:47;7.60;99.90
5392;DHT22;2719;53.624;9.786;2024-03-23T04:09:13;7.60;99.90
5392;DHT22;2719;53.624;9.786;2024-03-23T04:11:38;7.60;99.90
5392;DHT22;2719;53.624;9.786;2024-03-23T04:14:04;7.60;99.90
5392;DHT22;2719;53.624;9.786;2024-03-23T04:16:33;7.60;99.90
5392;DHT22;2719;53.624;9.786;2024-03-23T04:18:59;7.60;99.90
5392;DHT22;2719;53.624;9.786;2024-03-23T04:21:25;7.60;99.90
5392;DHT22;2719;53.624;9.786;2024-03-23T04:23:50;7.60;99.90
5392;DHT22;2719;53.624;9.786;2024-03-23T04:26:16;7.60;99.90
5392;DHT22;2719;53.624;9.786;2024-03-23T04:28:42;7.70;99.90
5392;DHT22;2719;53.624;9.786;2024-03-23T04:31:08;7.70;99.90
5392;DHT22;2719;53.624;9.786;2024-03-23T04:33:34;7.60;99.90
5392;DHT22;2719;53.624;9.786;2024-03-23T04:35:59;7.60;99.90
5392;DHT22;2719;53.624;9.786;2024-03-23T04:38:25;7.50;99.90
5392;DHT22;2719;53.624;9.786;2024-03-23T04:40:59;7.50;99.90
5392;DHT22;2719;53.624;9.786;2024-03-23T04:43:26;7.40;99.90
5392;DHT22;2719;53.624;9.786;2024-03-23T04:45:51;7.40;99.90
5392;DHT22;2719;53.624;9.786;2024-03-23T04:48:20;7.40;99.90
5392;DHT22;2719;53.624;9.786;2024-03-23T04:50:46;7.40;99.90
5392;DHT22;2719;53.624;9.786;2024-03-23T04:53:12;7.40;99.90
5392;DHT22;2719;53.624;9.786;2024-03-23T04:55:37;7.30;99.90
5392;DHT22;2719;53.624;9.786;2024-03-23T04:58:03;7.20;99.90
5392;DHT22;2719;53.624;9.786;2024-03-23T05:00:28;7.20;99.90
5392;DHT22;2719;53.624;9.786;2024-03-23T05:02:54;7.20;99.90
5392;DHT22;2719;53.624;9.786;2024-03-23T05:05:19;7.20;99.90
5392;DHT22;2719;53.624;9.786;2024-03-23T05:07:45;7.30;99.90
5392;DHT22;2719;53.624;9.786;2024-03-23T05:10:10;7.30;99.90
5392;DHT22;2719;53.624;9.786;2024-03-23T05:12:37;7.20;99.90
5392;DHT22;2719;53.624;9.786;2024-03-23T05:15:05;7.20;99.90
5392;DHT22;2719;53.624;9.786;2024-03-23T05:17:34;7.20;99.90
5392;DHT22;2719;53.624;9.786;2024-03-23T05:20:00;7.20;99.90
5392;DHT22;2719;53.624;9.786;2024-03-23T05:22:25;7.10;99.90
5392;DHT22;2719;53.624;9.786;2024-03-23T05:24:52;7.20;99.90
5392;DHT22;2719;53.624;9.786;2024-03-23T05:27:18;7.20;99.90
5392;DHT22;2719;53.624;9.786;2024-03-23T05:29:43;7.10;99.90
5392;DHT22;2719;53.624;9.786;2024-03-23T05:32:09;7.10;99.90
5392;DHT22;2719;53.624;9.786;2024-03-23T05:34:34;7.10;99.90
5392;DHT22;2719;53.624;9.786;2024-03-23T05:37:00;7.10;99.90
5392;DHT22;2719;53.624;9.786;2024-03-23T05:39:25;7.10;99.90
5392;DHT22;2719;53.624;9.786;2024-03-23T05:41:51;7.10;99.90
5392;DHT22;2719;53.624;9.786;2024-03-23T05:44:16;7.20;99.90
5392;DHT22;2719;53.624;9.786;2024-03-23T05:46:42;7.10;99.90
5392;DHT22;2719;53.624;9.786;2024-03-23T05:49:08;7.10;99.90
5392;DHT22;2719;53.624;9.786;2024-03-23T05:51:34;7.20;99.90
5392;DHT22;2719;53.624;9.786;2024-03-23T05:53:59;7.10;99.90
5392;DHT22;2719;53.624;9.786;2024-03-23T05:56:26;7.10;99.90
5392;DHT22;2719;53.624;9.786;2024-03-23T05:58:51;7.20;99.90
5392;DHT22;2719;53.624;9.786;2024-03-23T06:01:17;7.20;99.90
5392;DHT22;2719;53.624;9.786;2024-03-23T06:03:43;7.20;99.90
5392;DHT22;2719;53.624;9.786;2024-03-23T06:06:09;7.00;99.90
5392;DHT22;2719;53.624;9.786;2024-03-23T06:08:37;7.10;99.90
5392;DHT22;2719;53.624;9.786;2024-03-23T06:11:04;7.00;99.90
5392;DHT22;2719;53.624;9.786;2024-03-23T06:13:31;7.10;99.90
5392;DHT22;2719;53.624;9.786;2024-03-23T06:15:57;7.20;99.90
5392;DHT22;2719;53.624;9.786;2024-03-23T06:18:24;7.20;99.90
5392;DHT22;2719;53.624;9.786;2024-03-23T06:20:49;7.10;99.90
5392;DHT22;2719;53.624;9.786;2024-03-23T06:23:15;7.00;99.90
5392;DHT22;2719;53.624;9.786;2024-03-23T06:25:41;7.00;99.90
5392;DHT22;2719;53.624;9.786;2024-03-23T06:28:06;7.00;99.90
5392;DHT22;2719;53.624;9.786;2024-03-23T06:30:32;7.00;99.90
5392;DHT22;2719;53.624;9.786;2024-03-23T06:32:57;7.00;99.90
5392;DHT22;2719;53.624;9.786;2024-03-23T06:35:23;7.00;99.90
5392;DHT22;2719;53.624;9.786;2024-03-23T06:37:48;7.00;99.90
5392;DHT22;2719;53.624;9.786;2024-03-23T06:40:14;7.00;99.90
5392;DHT22;2719;53.624;9.786;2024-03-23T06:42:40;7.00;99.90
5392;DHT22;2719;53.624;9.786;2024-03-23T06:45:06;7.00;99.90
5392;DHT22;2719;53.624;9.786;2024-03-23T06:47:32;7.00;99.90
5392;DHT22;2719;53.624;9.786;2024-03-23T06:49:59;6.90;99.90
5392;DHT22;2719;53.624;9.786;2024-03-23T06:52:27;7.00;99.90
5392;DHT22;2719;53.624;9.786;2024-03-23T06:54:53;6.90;99.90
5392;DHT22;2719;53.624;9.786;2024-03-23T06:57:18;6.90;99.90
5392;DHT22;2719;53.624;9.786;2024-03-23T06:59:43;6.90;99.90
5392;DHT22;2719;53.624;9.786;2024-03-23T07:02:09;6.80;99.90
5392;DHT22;2719;53.624;9.786;2024-03-23T07:04:35;7.00;99.90
5392;DHT22;2719;53.624;9.786;2024-03-23T07:07:01;7.00;99.90
5392;DHT22;2719;53.624;9.786;2024-03-23T07:09:29;7.00;99.90
5392;DHT22;2719;53.624;9.786;2024-03-23T07:11:56;7.00;99.90
5392;DHT22;2719;53.624;9.786;2024-03-23T07:14:22;6.90;99.90
5392;DHT22;2719;53.624;9.786;2024-03-23T07:16:48;7.00;99.90
5392;DHT22;2719;53.624;9.786;2024-03-23T07:19:15;7.00;99.90
5392;DHT22;2719;53.624;9.786;2024-03-23T07:21:42;7.10;99.90
5392;DHT22;2719;53.624;9.786;2024-03-23T07:24:07;7.10;99.90
5392;DHT22;2719;53.624;9.786;2024-03-23T07:26:33;7.10;99.90
5392;DHT22;2719;53.624;9.786;2024-03-23T07:28:58;7.20;99.90
5392;DHT22;2719;53.624;9.786;2024-03-23T07:31:24;7.20;99.90
5392;DHT22;2719;53.624;9.786;2024-03-23T07:33:50;7.40;99.90
5392;DHT22;2719;53.624;9.786;2024-03-23T07:36:16;7.40;99.90
5392;DHT22;2719;53.624;9.786;2024-03-23T07:38:42;7.50;99.90
5392;DHT22;2719;53.624;9.786;2024-03-23T07:41:09;7.60;99.90
5392;DHT22;2719;53.624;9.786;2024-03-23T07:43:36;7.70;99.90
5392;DHT22;2719;53.624;9.786;2024-03-23T07:46:02;7.80;99.90
5392;DHT22;2719;53.624;9.786;2024-03-23T07:48:29;8.00;99.90
5392;DHT22;2719;53.624;9.786;2024-03-23T07:51:06;8.10;99.90
5392;DHT22;2719;53.624;9.786;2024-03-23T07:53:32;8.20;99.90
5392;DHT22;2719;53.624;9.786;2024-03-23T07:56:08;8.30;99.90
5392;DHT22;2719;53.624;9.786;2024-03-23T07:58:35;8.20;99.90
5392;DHT22;2719;53.624;9.786;2024-03-23T08:01:09;8.40;99.90
5392;DHT22;2719;53.624;9.786;2024-03-23T08:03:39;8.50;99.90
5392;DHT22;2719;53.624;9.786;2024-03-23T08:06:10;8.50;99.90
5392;DHT22;2719;53.624;9.786;2024-03-23T08:08:36;8.50;99.90
5392;DHT22;2719;53.624;9.786;2024-03-23T08:11:02;8.50;99.90
5392;DHT22;2719;53.624;9.786;2024-03-23T08:13:29;8.40;99.90
5392;DHT22;2719;53.624;9.786;2024-03-23T08:15:58;8.60;99.90
5392;DHT22;2719;53.624;9.786;2024-03-23T08:18:23;8.80;99.90
5392;DHT22;2719;53.624;9.786;2024-03-23T08:21:15;8.70;99.90
5392;DHT22;2719;53.624;9.786;2024-03-23T08:23:41;8.60;99.90
5392;DHT22;2719;53.624;9.786;2024-03-23T08:26:08;8.80;99.90
5392;DHT22;2719;53.624;9.786;2024-03-23T08:28:34;8.80;99.90
5392;DHT22;2719;53.624;9.786;2024-03-23T08:31:12;8.70;99.90
5392;DHT22;2719;53.624;9.786;2024-03-23T08:33:39;8.80;99.90
5392;DHT22;2719;53.624;9.786;2024-03-23T08:36:06;8.80;99.90
5392;DHT22;2719;53.624;9.786;2024-03-23T08:38:32;8.90;99.90
5392;DHT22;2719;53.624;9.786;2024-03-23T08:41:08;9.00;99.90
5392;DHT22;2719;53.624;9.786;2024-03-23T08:43:41;9.00;99.90
5392;DHT22;2719;53.624;9.786;2024-03-23T08:46:08;9.00;99.90
5392;DHT22;2719;53.624;9.786;2024-03-23T08:48:38;9.00;99.90
5392;DHT22;2719;53.624;9.786;2024-03-23T08:51:05;9.20;99.90
5392;DHT22;2719;53.624;9.786;2024-03-23T08:53:30;9.30;99.90
5392;DHT22;2719;53.624;9.786;2024-03-23T08:55:57;9.50;99.90
5392;DHT22;2719;53.624;9.786;2024-03-23T08:58:24;9.30;99.90
5392;DHT22;2719;53.624;9.786;2024-03-23T09:00:53;9.10;99.90
5392;DHT22;2719;53.624;9.786;2024-03-23T09:03:24;9.00;99.90
5392;DHT22;2719;53.624;9.786;2024-03-23T09:05:51;9.00;99.90
5392;DHT22;2719;53.624;9.786;2024-03-23T09:08:16;8.90;99.90
5392;DHT22;2719;53.624;9.786;2024-03-23T09:10:42;9.00;99.90
5392;DHT22;2719;53.624;9.786;2024-03-23T09:13:08;9.00;99.90
5392;DHT22;2719;53.624;9.786;2024-03-23T09:15:35;8.90;99.90
5392;DHT22;2719;53.624;9.786;2024-03-23T09:18:02;8.80;99.90
5392;DHT22;2719;53.624;9.786;2024-03-23T09:20:27;8.90;99.90
5392;DHT22;2719;53.624;9.786;2024-03-23T09:22:53;8.80;99.90
5392;DHT22;2719;53.624;9.786;2024-03-23T09:25:18;8.90;99.90
5392;DHT22;2719;53.624;9.786;2024-03-23T09:27:47;9.10;99.90
5392;DHT22;2719;53.624;9.786;2024-03-23T09:30:13;9.10;99.90
5392;DHT22;2719;53.624;9.786;2024-03-23T09:32:40;9.10;99.90
5392;DHT22;2719;53.624;9.786;2024-03-23T09:35:06;9.20;99.90
5392;DHT22;2719;53.624;9.786;2024-03-23T09:37:32;9.00;99.90
5392;DHT22;2719;53.624;9.786;2024-03-23T09:39:57;9.10;99.90
5392;DHT22;2719;53.624;9.786;2024-03-23T09:42:23;9.10;99.90
5392;DHT22;2719;53.624;9.786;2024-03-23T09:44:51;9.00;99.90
5392;DHT22;2719;53.624;9.786;2024-03-23T09:47:17;9.00;99.90
5392;DHT22;2719;53.624;9.786;2024-03-23T09:49:43;9.00;99.90
5392;DHT22;2719;53.624;9.786;2024-03-23T09:52:08;8.80;99.90
5392;DHT22;2719;53.624;9.786;2024-03-23T09:54:34;8.90;99.90
5392;DHT22;2719;53.624;9.786;2024-03-23T09:56:59;9.10;99.90
5392;DHT22;2719;53.624;9.786;2024-03-23T09:59:25;9.30;99.90
5392;DHT22;2719;53.624;9.786;2024-03-23T10:01:52;9.40;99.90
5392;DHT22;2719;53.624;9.786;2024-03-23T10:04:39;9.60;99.90
5392;DHT22;2719;53.624;9.786;2024-03-23T10:07:20;9.90;99.90
5392;DHT22;2719;53.624;9.786;2024-03-23T10:09:47;9.90;99.90
5392;DHT22;2719;53.624;9.786;2024-03-23T10:12:15;9.90;99.90
5392;DHT22;2719;53.624;9.786;2024-03-23T10:14:41;10.00;99.90
5392;DHT22;2719;53.624;9.786;2024-03-23T10:17:20;10.10;99.90
5392;DHT22;2719;53.624;9.786;2024-03-23T10:19:51;10.00;99.90
5392;DHT22;2719;53.624;9.786;2024-03-23T10:22:21;10.10;99.90
5392;DHT22;2719;53.624;9.786;2024-03-23T10:24:47;10.00;99.90
5392;DHT22;2719;53.624;9.786;2024-03-23T10:27:20;9.90;99.90
5392;DHT22;2719;53.624;9.786;2024-03-23T10:29:47;9.80;99.90
5392;DHT22;2719;53.624;9.786;2024-03-23T10:32:13;9.80;99.90
5392;DHT22;2719;53.624;9.786;2024-03-23T10:34:39;10.00;99.90
5392;DHT22;2719;53.624;9.786;2024-03-23T10:37:06;10.10;99.90
5392;DHT22;2719;53.624;9.786;2024-03-23T10:39:33;10.30;99.90
5392;DHT22;2719;53.624;9.786;2024-03-23T10:42:04;10.50;99.90
5392;DHT22;2719;53.624;9.786;2024-03-23T10:44:30;10.60;99.90
5392;DHT22;2719;53.624;9.786;2024-03-23T10:46:57;10.80;99.90
5392;DHT22;2719;53.624;9.786;2024-03-23T10:49:30;11.10;99.90
5392;DHT22;2719;53.624;9.786;2024-03-23T10:51:57;11.20;99.90
5392;DHT22;2719;53.624;9.786;2024-03-23T10:54:25;11.20;99.90
5392;DHT22;2719;53.624;9.786;2024-03-23T10:59:25;10.90;99.90
5392;DHT22;2719;53.624;9.786;2024-03-23T11:01:58;10.60;99.90
5392;DHT22;2719;53.624;9.786;2024-03-23T11:04:34;10.40;99.90
5392;DHT22;2719;53.624;9.786;2024-03-23T11:07:01;10.50;99.90
5392;DHT22;2719;53.624;9.786;2024-03-23T11:09:43;10.90;99.90
5392;DHT22;2719;53.624;9.786;2024-03-23T11:12:25;11.10;99.90
5392;DHT22;2719;53.624;9.786;2024-03-23T11:15:05;11.40;99.90
5392;DHT22;2719;53.624;9.786;2024-03-23T11:17:32;11.50;99.90
5392;DHT22;2719;53.624;9.786;2024-03-23T11:20:01;11.60;99.90
5392;DHT22;2719;53.624;9.786;2024-03-23T11:22:49;11.60;99.90
5392;DHT22;2719;53.624;9.786;2024-03-23T11:25:21;11.90;99.90
5392;DHT22;2719;53.624;9.786;2024-03-23T11:27:48;11.90;99.90
5392;DHT22;2719;53.624;9.786;2024-03-23T11:30:21;12.10;99.90
5392;DHT22;2719;53.624;9.786;2024-03-23T11:32:55;11.70;99.90
5392;DHT22;2719;53.624;9.786;2024-03-23T11:35:35;11.50;99.90
5392;DHT22;2719;53.624;9.786;2024-03-23T11:40:32;11.20;99.90
5392;DHT22;2719;53.624;9.786;2024-03-23T11:43:02;11.10;99.90
5392;DHT22;2719;53.624;9.786;2024-03-23T11:45:29;10.70;99.90
5392;DHT22;2719;53.624;9.786;2024-03-23T11:50:35;9.60;99.90
5392;DHT22;2719;53.624;9.786;2024-03-23T11:53:17;9.50;99.90
5392;DHT22;2719;53.624;9.786;2024-03-23T11:56:01;9.20;99.90
5392;DHT22;2719;53.624;9.786;2024-03-23T11:58:27;9.10;99.90
5392;DHT22;2719;53.624;9.786;2024-03-23T12:01:00;9.00;99.90
5392;DHT22;2719;53.624;9.786;2024-03-23T12:03:30;8.90;99.90
5392;DHT22;2719;53.624;9.786;2024-03-23T12:06:01;8.70;99.90
5392;DHT22;2719;53.624;9.786;2024-03-23T12:08:36;8.80;99.90
5392;DHT22;2719;53.624;9.786;2024-03-23T12:11:16;8.90;99.90
5392;DHT22;2719;53.624;9.786;2024-03-23T12:13:43;9.20;99.90
5392;DHT22;2719;53.624;9.786;2024-03-23T12:16:11;9.70;99.90
5392;DHT22;2719;53.624;9.786;2024-03-23T12:18:39;10.00;99.90
5392;DHT22;2719;53.624;9.786;2024-03-23T12:21:06;10.10;99.90
5392;DHT22;2719;53.624;9.786;2024-03-23T12:23:31;10.10;99.90
5392;DHT22;2719;53.624;9.786;2024-03-23T12:25:57;10.00;99.90
5392;DHT22;2719;53.624;9.786;2024-03-23T12:28:23;9.20;99.90
5392;DHT22;2719;53.624;9.786;2024-03-23T12:30:48;8.80;99.90
5392;DHT22;2719;53.624;9.786;2024-03-23T12:33:14;8.50;99.90
5392;DHT22;2719;53.624;9.786;2024-03-23T12:35:39;8.20;99.90
5392;DHT22;2719;53.624;9.786;2024-03-23T12:38:05;7.90;99.90
5392;DHT22;2719;53.624;9.786;2024-03-23T12:40:30;7.90;99.90
5392;DHT22;2719;53.624;9.786;2024-03-23T12:42:56;7.90;99.90
5392;DHT22;2719;53.624;9.786;2024-03-23T12:45:22;8.00;99.90
5392;DHT22;2719;53.624;9.786;2024-03-23T12:47:48;8.00;99.90
5392;DHT22;2719;53.624;9.786;2024-03-23T12:50:13;8.30;99.90
5392;DHT22;2719;53.624;9.786;2024-03-23T12:52:39;8.60;99.90
5392;DHT22;2719;53.624;9.786;2024-03-23T12:55:05;8.80;99.90
5392;DHT22;2719;53.624;9.786;2024-03-23T12:57:31;9.10;99.90
5392;DHT22;2719;53.624;9.786;2024-03-23T12:59:57;9.20;99.90
5392;DHT22;2719;53.624;9.786;2024-03-23T13:02:23;9.20;99.90
5392;DHT22;2719;53.624;9.786;2024-03-23T13:04:55;9.20;99.90
5392;DHT22;2719;53.624;9.786;2024-03-23T13:07:22;9.00;99.90
5392;DHT22;2719;53.624;9.786;2024-03-23T13:09:50;8.80;99.90
5392;DHT22;2719;53.624;9.786;2024-03-23T13:12:16;8.70;99.90
5392;DHT22;2719;53.624;9.786;2024-03-23T13:14:44;8.60;99.90
5392;DHT22;2719;53.624;9.786;2024-03-23T13:17:09;8.50;99.90
5392;DHT22;2719;53.624;9.786;2024-03-23T13:19:35;8.50;99.90
5392;DHT22;2719;53.624;9.786;2024-03-23T13:22:01;8.60;99.90
5392;DHT22;2719;53.624;9.786;2024-03-23T13:24:27;9.00;99.90
5392;DHT22;2719;53.624;9.786;2024-03-23T13:26:54;9.30;99.90
5392;DHT22;2719;53.624;9.786;2024-03-23T13:29:20;9.50;99.90
5392;DHT22;2719;53.624;9.786;2024-03-23T13:31:46;9.80;99.90
5392;DHT22;2719;53.624;9.786;2024-03-23T13:34:12;10.00;99.90
5392;DHT22;2719;53.624;9.786;2024-03-23T13:36:43;10.00;99.90
5392;DHT22;2719;53.624;9.786;2024-03-23T13:39:09;9.90;99.90
5392;DHT22;2719;53.624;9.786;2024-03-23T13:44:07;10.10;99.90
5392;DHT22;2719;53.624;9.786;2024-03-23T13:46:33;10.10;99.90
5392;DHT22;2719;53.624;9.786;2024-03-23T13:48:59;10.20;99.90
5392;DHT22;2719;53.624;9.786;2024-03-23T13:51:25;10.10;99.90
5392;DHT22;2719;53.624;9.786;2024-03-23T13:53:55;9.90;99.90
5392;DHT22;2719;53.624;9.786;2024-03-23T13:56:22;9.70;99.90
5392;DHT22;2719;53.624;9.786;2024-03-23T13:58:48;9.60;99.90
5392;DHT22;2719;53.624;9.786;2024-03-23T14:01:14;9.80;99.90
5392;DHT22;2719;53.624;9.786;2024-03-23T14:03:40;9.80;99.90
5392;DHT22;2719;53.624;9.786;2024-03-23T14:06:07;9.80;99.90
5392;DHT22;2719;53.624;9.786;2024-03-23T14:08:33;9.80;99.90
5392;DHT22;2719;53.624;9.786;2024-03-23T14:11:01;9.70;99.90
5392;DHT22;2719;53.624;9.786;2024-03-23T14:13:27;9.50;99.90
5392;DHT22;2719;53.624;9.786;2024-03-23T14:15:56;9.30;99.90
5392;DHT22;2719;53.624;9.786;2024-03-23T14:18:22;9.30;99.90
5392;DHT22;2719;53.624;9.786;2024-03-23T14:20:51;9.40;99.90
5392;DHT22;2719;53.624;9.786;2024-03-23T14:23:19;9.40;99.90
5392;DHT22;2719;53.624;9.786;2024-03-23T14:25:44;9.40;99.90
5392;DHT22;2719;53.624;9.786;2024-03-23T14:28:10;9.30;99.90
5392;DHT22;2719;53.624;9.786;2024-03-23T14:30:40;9.30;99.90
5392;DHT22;2719;53.624;9.786;2024-03-23T14:33:06;9.30;99.90
5392;DHT22;2719;53.624;9.786;2024-03-23T14:35:32;9.20;99.90
5392;DHT22;2719;53.624;9.786;2024-03-23T14:37:58;9.20;99.90
5392;DHT22;2719;53.624;9.786;2024-03-23T14:40:24;9.10;99.90
5392;DHT22;2719;53.624;9.786;2024-03-23T14:42:53;8.90;99.90
5392;DHT22;2719;53.624;9.786;2024-03-23T14:45:18;8.70;99.90
5392;DHT22;2719;53.624;9.786;2024-03-23T14:47:44;8.20;99.90
5392;DHT22;2719;53.624;9.786;2024-03-23T14:50:10;8.00;99.90
5392;DHT22;2719;53.624;9.786;2024-03-23T14:52:39;7.90;99.90
5392;DHT22;2719;53.624;9.786;2024-03-23T14:55:05;8.10;99.90
5392;DHT22;2719;53.624;9.786;2024-03-23T14:57:31;8.10;99.90
5392;DHT22;2719;53.624;9.786;2024-03-23T14:59:56;8.20;99.90
5392;DHT22;2719;53.624;9.786;2024-03-23T15:02:22;8.10;99.90
5392;DHT22;2719;53.624;9.786;2024-03-23T15:04:47;8.20;99.90
5392;DHT22;2719;53.624;9.786;2024-03-23T15:07:13;8.60;99.90
5392;DHT22;2719;53.624;9.786;2024-03-23T15:09:38;8.70;99.90
5392;DHT22;2719;53.624;9.786;2024-03-23T15:12:04;8.80;99.90
5392;DHT22;2719;53.624;9.786;2024-03-23T15:14:30;8.90;99.90
5392;DHT22;2719;53.624;9.786;2024-03-23T15:16:55;9.10;99.90
5392;DHT22;2719;53.624;9.786;2024-03-23T15:19:21;9.00;99.90
5392;DHT22;2719;53.624;9.786;2024-03-23T15:21:46;9.10;99.90
5392;DHT22;2719;53.624;9.786;2024-03-23T15:24:12;9.20;99.90
5392;DHT22;2719;53.624;9.786;2024-03-23T15:26:38;9.40;99.90
5392;DHT22;2719;53.624;9.786;2024-03-23T15:29:03;9.40;99.90
5392;DHT22;2719;53.624;9.786;2024-03-23T15:31:36;9.40;99.90
5392;DHT22;2719;53.624;9.786;2024-03-23T15:34:02;9.30;99.90
5392;DHT22;2719;53.624;9.786;2024-03-23T15:36:28;9.10;99.90
5392;DHT22;2719;53.624;9.786;2024-03-23T15:38:54;8.90;99.90
5392;DHT22;2719;53.624;9.786;2024-03-23T15:41:20;8.70;99.90
5392;DHT22;2719;53.624;9.786;2024-03-23T15:43:48;8.80;99.90
5392;DHT22;2719;53.624;9.786;2024-03-23T15:46:13;8.90;99.90
5392;DHT22;2719;53.624;9.786;2024-03-23T15:48:40;9.10;99.90
5392;DHT22;2719;53.624;9.786;2024-03-23T15:51:05;9.30;99.90
5392;DHT22;2719;53.624;9.786;2024-03-23T15:53:31;9.30;99.90
5392;DHT22;2719;53.624;9.786;2024-03-23T15:55:59;9.10;99.90
5392;DHT22;2719;53.624;9.786;2024-03-23T15:58:25;9.00;99.90
5392;DHT22;2719;53.624;9.786;2024-03-23T16:01:17;9.00;99.90
5392;DHT22;2719;53.624;9.786;2024-03-23T16:03:43;8.90;99.90
5392;DHT22;2719;53.624;9.786;2024-03-23T16:06:09;8.90;99.90
5392;DHT22;2719;53.624;9.786;2024-03-23T16:08:34;8.80;99.90
5392;DHT22;2719;53.624;9.786;2024-03-23T16:11:05;8.70;99.90
5392;DHT22;2719;53.624;9.786;2024-03-23T16:13:32;8.50;99.90
5392;DHT22;2719;53.624;9.786;2024-03-23T16:15:59;8.40;99.90
5392;DHT22;2719;53.624;9.786;2024-03-23T16:18:25;8.20;99.90
5392;DHT22;2719;53.624;9.786;2024-03-23T16:21:01;8.00;99.90
5392;DHT22;2719;53.624;9.786;2024-03-23T16:23:27;7.90;99.90
5392;DHT22;2719;53.624;9.786;2024-03-23T16:25:54;7.90;99.90
5392;DHT22;2719;53.624;9.786;2024-03-23T16:28:27;7.80;99.90
5392;DHT22;2719;53.624;9.786;2024-03-23T16:31:03;7.70;99.90
5392;DHT22;2719;53.624;9.786;2024-03-23T16:33:30;7.70;99.90
5392;DHT22;2719;53.624;9.786;2024-03-23T16:38:30;7.80;99.90
5392;DHT22;2719;53.624;9.786;2024-03-23T16:40:59;7.70;99.90
5392;DHT22;2719;53.624;9.786;2024-03-23T16:43:25;7.80;99.90
5392;DHT22;2719;53.624;9.786;2024-03-23T16:46:01;7.90;99.90
5392;DHT22;2719;53.624;9.786;2024-03-23T16:48:29;7.90;99.90
5392;DHT22;2719;53.624;9.786;2024-03-23T16:50:59;8.10;99.90
5392;DHT22;2719;53.624;9.786;2024-03-23T16:53:25;8.10;99.90
5392;DHT22;2719;53.624;9.786;2024-03-23T16:56:03;8.10;99.90
5392;DHT22;2719;53.624;9.786;2024-03-23T16:58:30;8.10;99.90
5392;DHT22;2719;53.624;9.786;2024-03-23T17:00:56;8.00;99.90
5392;DHT22;2719;53.624;9.786;2024-03-23T17:03:23;8.00;99.90
5392;DHT22;2719;53.624;9.786;2024-03-23T17:05:49;8.10;99.90
5392;DHT22;2719;53.624;9.786;2024-03-23T17:08:15;8.10;99.90
5392;DHT22;2719;53.624;9.786;2024-03-23T17:10:41;8.10;99.90
5392;DHT22;2719;53.624;9.786;2024-03-23T17:13:07;8.00;99.90
5392;DHT22;2719;53.624;9.786;2024-03-23T17:15:32;8.00;99.90
5392;DHT22;2719;53.624;9.786;2024-03-23T17:17:58;7.80;99.90
5392;DHT22;2719;53.624;9.786;2024-03-23T17:20:24;7.80;99.90
5392;DHT22;2719;53.624;9.786;2024-03-23T17:22:56;7.70;99.90